sensor_id;sensor_type;location;lat;lon;timestamp;pressure;altitude;pressure_sealevel;temperature;humidity
48156;BME280;35568;48.104;11.782;2023-04-26T00:01:09;95291.32;;;7.32;54.35
48156;BME280;35568;48.104;11.782;2023-04-26T00:03:36;95293.65;;;7.26;54.46
48156;BME280;35568;48.104;11.782;2023-04-26T00:06:03;95300.73;;;7.34;54.47
48156;BME280;35568;48.104;11.782;2023-04-26T00:08:30;95300.10;;;7.26;54.54
48156;BME280;35568;48.104;11.782;2023-04-26T00:10:57;95298.60;;;7.02;54.78
48156;BME280;35568;48.104;11.782;2023-04-26T00:13:24;95295.04;;;7.15;54.89
48156;BME280;35568;48.104;11.782;2023-04-26T00:15:51;95293.51;;;6.95;55.13
48156;BME280;35568;48.104;11.782;2023-04-26T00:18:18;95292.39;;;7.26;55.11
48156;BME280;35568;48.104;11.782;2023-04-26T00:20:45;95293.44;;;6.97;55.34
48156;BME280;35568;48.104;11.782;2023-04-26T00:23:11;95295.91;;;6.76;55.48
48156;BME280;35568;48.104;11.782;2023-04-26T00:25:38;95292.46;;;7.12;55.46
48156;BME280;35568;48.104;11.782;2023-04-26T00:28:05;95293.19;;;6.80;55.76
48156;BME280;35568;48.104;11.782;2023-04-26T00:30:32;95293.37;;;7.10;55.57
48156;BME280;35568;48.104;11.782;2023-04-26T00:33:00;95293.31;;;6.58;55.93
48156;BME280;35568;48.104;11.782;2023-04-26T00:35:27;95289.08;;;7.16;55.18
48156;BME280;35568;48.104;11.782;2023-04-26T00:37:54;95292.30;;;7.25;55.06
48156;BME280;35568;48.104;11.782;2023-04-26T00:40:21;95290.70;;;7.13;55.01
48156;BME280;35568;48.104;11.782;2023-04-26T00:42:48;95293.69;;;7.36;54.83
48156;BME280;35568;48.104;11.782;2023-04-26T00:45:22;95293.15;;;7.38;55.18
48156;BME280;35568;48.104;11.782;2023-04-26T00:47:50;95290.37;;;7.22;55.03
48156;BME280;35568;48.104;11.782;2023-04-26T00:50:17;95289.69;;;6.97;55.24
48156;BME280;35568;48.104;11.782;2023-04-26T00:52:45;95291.16;;;7.16;55.04
48156;BME280;35568;48.104;11.782;2023-04-26T00:55:13;95294.87;;;7.16;54.75
48156;BME280;35568;48.104;11.782;2023-04-26T00:57:41;95299.58;;;7.40;54.67
48156;BME280;35568;48.104;11.782;2023-04-26T01:00:10;95300.47;;;7.16;54.13
48156;BME280;35568;48.104;11.782;2023-04-26T01:02:37;95300.80;;;7.60;54.21
48156;BME280;35568;48.104;11.782;2023-04-26T01:05:05;95299.88;;;7.05;54.44
48156;BME280;35568;48.104;11.782;2023-04-26T01:07:33;95297.25;;;7.56;54.36
48156;BME280;35568;48.104;11.782;2023-04-26T01:10:00;95301.13;;;7.19;55.01
48156;BME280;35568;48.104;11.782;2023-04-26T01:12:28;95299.01;;;7.23;54.91
48156;BME280;35568;48.104;11.782;2023-04-26T01:14:56;95296.46;;;6.86;55.25
48156;BME280;35568;48.104;11.782;2023-04-26T01:17:23;95294.73;;;6.90;55.41
48156;BME280;35568;48.104;11.782;2023-04-26T01:19:50;95294.65;;;6.75;55.73
48156;BME280;35568;48.104;11.782;2023-04-26T01:22:17;95293.73;;;6.52;55.92
48156;BME280;35568;48.104;11.782;2023-04-26T01:24:46;95295.45;;;6.89;55.17
48156;BME280;35568;48.104;11.782;2023-04-26T01:27:14;95296.52;;;6.71;55.56
48156;BME280;35568;48.104;11.782;2023-04-26T01:29:42;95300.97;;;6.84;55.36
48156;BME280;35568;48.104;11.782;2023-04-26T01:32:09;95305.42;;;6.87;55.54
48156;BME280;35568;48.104;11.782;2023-04-26T01:34:36;95308.15;;;6.82;55.29
48156;BME280;35568;48.104;11.782;2023-04-26T01:37:03;95310.65;;;6.90;55.41
48156;BME280;35568;48.104;11.782;2023-04-26T01:39:30;95310.50;;;6.77;55.51
48156;BME280;35568;48.104;11.782;2023-04-26T01:41:57;95313.67;;;6.84;55.43
48156;BME280;35568;48.104;11.782;2023-04-26T01:44:25;95311.93;;;6.80;55.50
48156;BME280;35568;48.104;11.782;2023-04-26T01:46:52;95312.53;;;6.78;55.29
48156;BME280;35568;48.104;11.782;2023-04-26T01:49:19;95317.57;;;6.88;55.03
48156;BME280;35568;48.104;11.782;2023-04-26T01:51:45;95313.87;;;6.84;55.97
48156;BME280;35568;48.104;11.782;2023-04-26T01:54:12;95315.48;;;6.40;55.63
48156;BME280;35568;48.104;11.782;2023-04-26T01:56:39;95313.22;;;6.91;55.46
48156;BME280;35568;48.104;11.782;2023-04-26T02:04:42;95309.62;;;6.70;56.64
48156;BME280;35568;48.104;11.782;2023-04-26T02:07:09;95315.64;;;6.28;55.86
48156;BME280;35568;48.104;11.782;2023-04-26T02:09:36;95315.39;;;7.01;54.95
48156;BME280;35568;48.104;11.782;2023-04-26T02:12:03;95313.26;;;6.35;55.78
48156;BME280;35568;48.104;11.782;2023-04-26T02:14:29;95317.35;;;6.45;55.53
48156;BME280;35568;48.104;11.782;2023-04-26T02:16:56;95322.40;;;6.37;55.70
48156;BME280;35568;48.104;11.782;2023-04-26T02:19:23;95322.96;;;6.07;55.37
48156;BME280;35568;48.104;11.782;2023-04-26T02:21:52;95328.19;;;5.71;56.10
48156;BME280;35568;48.104;11.782;2023-04-26T02:24:19;95323.18;;;5.47;56.39
48156;BME280;35568;48.104;11.782;2023-04-26T02:26:46;95322.55;;;5.55;56.87
48156;BME280;35568;48.104;11.782;2023-04-26T02:29:13;95325.93;;;5.85;55.89
48156;BME280;35568;48.104;11.782;2023-04-26T02:31:40;95320.72;;;5.46;56.13
48156;BME280;35568;48.104;11.782;2023-04-26T02:34:07;95318.66;;;5.23;56.67
48156;BME280;35568;48.104;11.782;2023-04-26T02:36:34;95312.94;;;5.28;56.98
48156;BME280;35568;48.104;11.782;2023-04-26T02:39:00;95313.35;;;5.41;57.09
48156;BME280;35568;48.104;11.782;2023-04-26T02:41:27;95311.88;;;5.63;56.68
48156;BME280;35568;48.104;11.782;2023-04-26T02:43:54;95309.94;;;5.07;56.86
48156;BME280;35568;48.104;11.782;2023-04-26T02:46:21;95312.37;;;5.63;56.85
48156;BME280;35568;48.104;11.782;2023-04-26T02:48:47;95310.12;;;5.57;56.39
48156;BME280;35568;48.104;11.782;2023-04-26T02:51:14;95304.67;;;5.56;56.40
48156;BME280;35568;48.104;11.782;2023-04-26T02:53:40;95307.02;;;5.53;56.06
48156;BME280;35568;48.104;11.782;2023-04-26T02:56:07;95307.06;;;5.35;56.10
48156;BME280;35568;48.104;11.782;2023-04-26T02:58:34;95308.03;;;5.55;56.49
48156;BME280;35568;48.104;11.782;2023-04-26T03:03:00;95312.76;;;5.78;55.02
48156;BME280;35568;48.104;11.782;2023-04-26T03:05:27;95310.48;;;5.63;54.81
48156;BME280;35568;48.104;11.782;2023-04-26T03:07:54;95311.07;;;5.60;55.01
48156;BME280;35568;48.104;11.782;2023-04-26T03:10:21;95315.26;;;5.37;55.54
48156;BME280;35568;48.104;11.782;2023-04-26T03:12:48;95315.76;;;4.98;55.93
48156;BME280;35568;48.104;11.782;2023-04-26T03:15:14;95315.05;;;5.27;56.59
48156;BME280;35568;48.104;11.782;2023-04-26T03:17:42;95316.27;;;5.70;56.01
48156;BME280;35568;48.104;11.782;2023-04-26T03:20:09;95318.34;;;5.73;56.19
48156;BME280;35568;48.104;11.782;2023-04-26T03:22:36;95319.85;;;5.46;56.11
48156;BME280;35568;48.104;11.782;2023-04-26T03:25:02;95319.24;;;5.85;55.35
48156;BME280;35568;48.104;11.782;2023-04-26T03:27:29;95318.99;;;5.43;55.40
48156;BME280;35568;48.104;11.782;2023-04-26T03:29:57;95321.19;;;5.52;55.14
48156;BME280;35568;48.104;11.782;2023-04-26T03:32:24;95322.62;;;5.76;55.27
48156;BME280;35568;48.104;11.782;2023-04-26T03:34:51;95324.80;;;5.56;55.37
48156;BME280;35568;48.104;11.782;2023-04-26T03:37:17;95328.91;;;5.47;55.37
48156;BME280;35568;48.104;11.782;2023-04-26T03:39:44;95331.16;;;5.89;55.41
48156;BME280;35568;48.104;11.782;2023-04-26T03:42:11;95328.84;;;5.83;54.78
48156;BME280;35568;48.104;11.782;2023-04-26T03:44:38;95327.98;;;5.53;55.40
48156;BME280;35568;48.104;11.782;2023-04-26T03:47:05;95331.45;;;5.38;55.53
48156;BME280;35568;48.104;11.782;2023-04-26T03:49:32;95337.64;;;5.12;55.71
48156;BME280;35568;48.104;11.782;2023-04-26T03:51:59;95332.51;;;5.77;55.62
48156;BME280;35568;48.104;11.782;2023-04-26T03:54:26;95334.21;;;5.84;55.23
48156;BME280;35568;48.104;11.782;2023-04-26T03:56:53;95336.83;;;5.65;54.79
48156;BME280;35568;48.104;11.782;2023-04-26T03:59:20;95334.18;;;6.04;54.88
48156;BME280;35568;48.104;11.782;2023-04-26T04:01:47;95331.54;;;5.93;54.98
48156;BME280;35568;48.104;11.782;2023-04-26T04:04:14;95331.29;;;5.66;55.72
48156;BME280;35568;48.104;11.782;2023-04-26T04:06:41;95335.49;;;5.59;55.58
48156;BME280;35568;48.104;11.782;2023-04-26T04:09:07;95333.32;;;5.06;56.11
48156;BME280;35568;48.104;11.782;2023-04-26T04:11:34;95331.35;;;5.37;55.81
48156;BME280;35568;48.104;11.782;2023-04-26T04:14:01;95330.75;;;4.84;55.95
48156;BME280;35568;48.104;11.782;2023-04-26T04:16:28;95333.74;;;5.13;55.93
48156;BME280;35568;48.104;11.782;2023-04-26T04:18:55;95336.17;;;4.89;56.50
48156;BME280;35568;48.104;11.782;2023-04-26T04:21:22;95338.56;;;5.04;56.76
48156;BME280;35568;48.104;11.782;2023-04-26T04:23:48;95339.98;;;5.06;57.05
48156;BME280;35568;48.104;11.782;2023-04-26T04:26:15;95342.49;;;4.72;57.05
48156;BME280;35568;48.104;11.782;2023-04-26T04:28:42;95347.54;;;5.30;56.69
48156;BME280;35568;48.104;11.782;2023-04-26T04:31:09;95347.01;;;5.34;56.48
48156;BME280;35568;48.104;11.782;2023-04-26T04:33:36;95347.96;;;5.28;56.41
48156;BME280;35568;48.104;11.782;2023-04-26T04:36:03;95352.36;;;5.21;57.30
48156;BME280;35568;48.104;11.782;2023-04-26T04:38:32;95356.80;;;5.37;56.50
48156;BME280;35568;48.104;11.782;2023-04-26T04:41:00;95354.18;;;5.33;56.93
48156;BME280;35568;48.104;11.782;2023-04-26T04:43:43;95354.85;;;5.51;56.63
48156;BME280;35568;48.104;11.782;2023-04-26T04:46:10;95355.56;;;5.53;56.34
48156;BME280;35568;48.104;11.782;2023-04-26T04:48:37;95357.32;;;5.28;56.79
48156;BME280;35568;48.104;11.782;2023-04-26T04:51:05;95357.69;;;5.48;56.79
48156;BME280;35568;48.104;11.782;2023-04-26T04:53:31;95362.60;;;5.33;56.80
48156;BME280;35568;48.104;11.782;2023-04-26T04:55:58;95364.54;;;5.60;56.51
48156;BME280;35568;48.104;11.782;2023-04-26T04:58:26;95366.03;;;5.36;56.49
48156;BME280;35568;48.104;11.782;2023-04-26T05:00:52;95366.71;;;5.47;56.42
48156;BME280;35568;48.104;11.782;2023-04-26T05:03:19;95370.98;;;5.28;56.64
48156;BME280;35568;48.104;11.782;2023-04-26T05:05:46;95372.21;;;5.02;56.81
48156;BME280;35568;48.104;11.782;2023-04-26T05:08:13;95374.02;;;5.20;56.61
48156;BME280;35568;48.104;11.782;2023-04-26T05:10:39;95377.71;;;5.00;56.64
48156;BME280;35568;48.104;11.782;2023-04-26T05:13:06;95382.98;;;5.55;56.83
48156;BME280;35568;48.104;11.782;2023-04-26T05:15:32;95388.40;;;5.52;57.01
48156;BME280;35568;48.104;11.782;2023-04-26T05:17:59;95389.57;;;5.34;56.97
48156;BME280;35568;48.104;11.782;2023-04-26T05:20:26;95391.58;;;5.29;57.57
48156;BME280;35568;48.104;11.782;2023-04-26T05:22:53;95392.14;;;5.84;56.60
48156;BME280;35568;48.104;11.782;2023-04-26T05:25:20;95391.31;;;5.52;56.64
48156;BME280;35568;48.104;11.782;2023-04-26T05:27:47;95390.63;;;4.57;56.91
48156;BME280;35568;48.104;11.782;2023-04-26T05:30:14;95390.83;;;6.31;56.49
48156;BME280;35568;48.104;11.782;2023-04-26T05:32:41;95395.56;;;5.90;56.03
48156;BME280;35568;48.104;11.782;2023-04-26T05:35:08;95395.52;;;5.34;56.10
48156;BME280;35568;48.104;11.782;2023-04-26T05:37:35;95398.05;;;6.05;56.26
48156;BME280;35568;48.104;11.782;2023-04-26T05:40:03;95399.58;;;6.03;55.85
48156;BME280;35568;48.104;11.782;2023-04-26T05:42:30;95403.66;;;6.08;55.47
48156;BME280;35568;48.104;11.782;2023-04-26T05:44:58;95406.82;;;6.05;55.10
48156;BME280;35568;48.104;11.782;2023-04-26T05:47:25;95405.73;;;6.09;55.77
48156;BME280;35568;48.104;11.782;2023-04-26T05:49:51;95406.62;;;6.23;55.41
48156;BME280;35568;48.104;11.782;2023-04-26T05:52:18;95404.47;;;5.98;55.38
48156;BME280;35568;48.104;11.782;2023-04-26T05:54:45;95407.87;;;6.02;55.49
48156;BME280;35568;48.104;11.782;2023-04-26T05:57:12;95412.32;;;5.66;55.90
48156;BME280;35568;48.104;11.782;2023-04-26T05:59:39;95410.44;;;5.55;55.71
48156;BME280;35568;48.104;11.782;2023-04-26T06:02:06;95414.93;;;6.29;55.87
48156;BME280;35568;48.104;11.782;2023-04-26T06:04:33;95419.83;;;5.74;55.98
48156;BME280;35568;48.104;11.782;2023-04-26T06:07:00;95418.16;;;6.03;55.72
48156;BME280;35568;48.104;11.782;2023-04-26T06:09:30;95420.59;;;5.49;55.92
48156;BME280;35568;48.104;11.782;2023-04-26T06:11:57;95423.02;;;6.09;55.51
48156;BME280;35568;48.104;11.782;2023-04-26T06:14:24;95428.26;;;5.67;55.76
48156;BME280;35568;48.104;11.782;2023-04-26T06:16:51;95431.15;;;5.63;55.76
48156;BME280;35568;48.104;11.782;2023-04-26T06:19:18;95430.32;;;5.76;55.63
48156;BME280;35568;48.104;11.782;2023-04-26T06:21:44;95436.96;;;6.06;55.01
48156;BME280;35568;48.104;11.782;2023-04-26T06:24:11;95435.65;;;6.66;55.52
48156;BME280;35568;48.104;11.782;2023-04-26T06:26:38;95432.82;;;6.24;55.80
48156;BME280;35568;48.104;11.782;2023-04-26T06:29:04;95438.26;;;6.19;55.45
48156;BME280;35568;48.104;11.782;2023-04-26T06:31:31;95436.17;;;5.51;55.19
48156;BME280;35568;48.104;11.782;2023-04-26T06:33:58;95434.81;;;5.88;54.23
48156;BME280;35568;48.104;11.782;2023-04-26T06:36:25;95435.96;;;6.17;54.72
48156;BME280;35568;48.104;11.782;2023-04-26T06:38:52;95433.60;;;6.40;54.70
48156;BME280;35568;48.104;11.782;2023-04-26T06:41:19;95435.37;;;6.01;54.80
48156;BME280;35568;48.104;11.782;2023-04-26T06:43:46;95437.39;;;5.88;55.25
48156;BME280;35568;48.104;11.782;2023-04-26T06:46:13;95436.00;;;6.35;55.42
48156;BME280;35568;48.104;11.782;2023-04-26T06:48:40;95439.69;;;6.24;54.75
48156;BME280;35568;48.104;11.782;2023-04-26T06:51:07;95439.31;;;6.72;54.86
48156;BME280;35568;48.104;11.782;2023-04-26T06:53:35;95441.79;;;6.58;54.22
48156;BME280;35568;48.104;11.782;2023-04-26T06:56:02;95442.30;;;6.84;53.55
48156;BME280;35568;48.104;11.782;2023-04-26T06:58:30;95440.27;;;5.96;53.55
48156;BME280;35568;48.104;11.782;2023-04-26T07:00:58;95441.89;;;6.36;53.79
48156;BME280;35568;48.104;11.782;2023-04-26T07:03:24;95442.82;;;6.30;53.48
48156;BME280;35568;48.104;11.782;2023-04-26T07:05:51;95443.75;;;6.26;53.43
48156;BME280;35568;48.104;11.782;2023-04-26T07:08:18;95445.25;;;6.60;53.55
48156;BME280;35568;48.104;11.782;2023-04-26T07:10:44;95441.34;;;6.28;53.39
48156;BME280;35568;48.104;11.782;2023-04-26T07:13:12;95445.49;;;6.18;53.33
48156;BME280;35568;48.104;11.782;2023-04-26T07:15:39;95445.29;;;6.90;53.42
48156;BME280;35568;48.104;11.782;2023-04-26T07:18:06;95444.80;;;7.69;51.64
48156;BME280;35568;48.104;11.782;2023-04-26T07:20:33;95440.20;;;7.26;49.95
48156;BME280;35568;48.104;11.782;2023-04-26T07:23:00;95440.09;;;7.29;49.96
48156;BME280;35568;48.104;11.782;2023-04-26T07:25:26;95442.49;;;7.36;48.98
48156;BME280;35568;48.104;11.782;2023-04-26T07:27:58;95441.94;;;7.05;49.12
48156;BME280;35568;48.104;11.782;2023-04-26T07:30:25;95444.83;;;8.05;49.22
48156;BME280;35568;48.104;11.782;2023-04-26T07:32:52;95445.32;;;7.89;49.70
48156;BME280;35568;48.104;11.782;2023-04-26T07:35:19;95441.52;;;8.13;48.02
48156;BME280;35568;48.104;11.782;2023-04-26T07:37:46;95442.01;;;8.71;48.76
48156;BME280;35568;48.104;11.782;2023-04-26T07:40:13;95437.53;;;8.38;47.84
48156;BME280;35568;48.104;11.782;2023-04-26T07:42:40;95437.22;;;8.21;46.74
48156;BME280;35568;48.104;11.782;2023-04-26T07:45:08;95438.16;;;8.24;46.43
48156;BME280;35568;48.104;11.782;2023-04-26T07:47:35;95434.80;;;8.99;46.07
48156;BME280;35568;48.104;11.782;2023-04-26T07:50:03;95434.68;;;8.95;45.62
48156;BME280;35568;48.104;11.782;2023-04-26T07:52:30;95437.48;;;9.23;45.13
48156;BME280;35568;48.104;11.782;2023-04-26T07:54:57;95442.40;;;9.19;44.65
48156;BME280;35568;48.104;11.782;2023-04-26T07:57:24;95442.77;;;9.58;44.32
48156;BME280;35568;48.104;11.782;2023-04-26T07:59:51;95443.84;;;10.01;45.41
48156;BME280;35568;48.104;11.782;2023-04-26T08:02:17;95440.46;;;9.87;44.31
48156;BME280;35568;48.104;11.782;2023-04-26T08:04:47;95440.12;;;9.94;43.85
48156;BME280;35568;48.104;11.782;2023-04-26T08:07:14;95441.41;;;9.61;44.16
48156;BME280;35568;48.104;11.782;2023-04-26T08:09:41;95443.05;;;9.49;44.05
48156;BME280;35568;48.104;11.782;2023-04-26T08:12:10;95437.75;;;10.17;42.95
48156;BME280;35568;48.104;11.782;2023-04-26T08:14:38;95436.76;;;11.36;41.44
48156;BME280;35568;48.104;11.782;2023-04-26T08:17:07;95434.21;;;11.46;40.11
48156;BME280;35568;48.104;11.782;2023-04-26T08:19:34;95433.80;;;11.59;40.43
48156;BME280;35568;48.104;11.782;2023-04-26T08:22:01;95433.77;;;12.29;38.52
48156;BME280;35568;48.104;11.782;2023-04-26T08:24:28;95435.28;;;12.14;37.90
48156;BME280;35568;48.104;11.782;2023-04-26T08:26:55;95437.55;;;11.98;37.33
48156;BME280;35568;48.104;11.782;2023-04-26T08:29:22;95439.56;;;12.17;37.92
48156;BME280;35568;48.104;11.782;2023-04-26T08:31:48;95438.32;;;12.10;38.37
48156;BME280;35568;48.104;11.782;2023-04-26T08:34:16;95440.75;;;11.80;36.80
48156;BME280;35568;48.104;11.782;2023-04-26T08:36:43;95440.28;;;12.28;36.85
48156;BME280;35568;48.104;11.782;2023-04-26T08:39:10;95436.92;;;12.97;38.26
48156;BME280;35568;48.104;11.782;2023-04-26T08:41:42;95434.79;;;12.71;36.43
48156;BME280;35568;48.104;11.782;2023-04-26T08:44:10;95431.93;;;13.06;36.05
48156;BME280;35568;48.104;11.782;2023-04-26T08:46:43;95432.04;;;12.76;36.99
48156;BME280;35568;48.104;11.782;2023-04-26T08:49:25;95430.34;;;12.87;34.94
48156;BME280;35568;48.104;11.782;2023-04-26T08:51:57;95432.55;;;12.46;37.18
48156;BME280;35568;48.104;11.782;2023-04-26T08:54:25;95437.15;;;11.92;35.71
48156;BME280;35568;48.104;11.782;2023-04-26T08:56:53;95431.88;;;12.12;36.58
48156;BME280;35568;48.104;11.782;2023-04-26T08:59:22;95422.52;;;13.56;35.28
48156;BME280;35568;48.104;11.782;2023-04-26T09:01:49;95422.95;;;13.91;34.53
48156;BME280;35568;48.104;11.782;2023-04-26T09:04:17;95420.27;;;14.25;33.15
48156;BME280;35568;48.104;11.782;2023-04-26T09:06:44;95422.49;;;14.05;33.14
48156;BME280;35568;48.104;11.782;2023-04-26T09:09:12;95422.02;;;14.46;32.30
48156;BME280;35568;48.104;11.782;2023-04-26T09:11:53;95419.02;;;14.97;32.37
48156;BME280;35568;48.104;11.782;2023-04-26T09:14:20;95415.96;;;15.31;31.76
48156;BME280;35568;48.104;11.782;2023-04-26T09:16:47;95421.66;;;16.60;28.82
48156;BME280;35568;48.104;11.782;2023-04-26T09:19:14;95416.55;;;15.87;30.46
48156;BME280;35568;48.104;11.782;2023-04-26T09:21:42;95414.37;;;15.74;30.31
48156;BME280;35568;48.104;11.782;2023-04-26T09:24:09;95416.37;;;15.29;30.31
48156;BME280;35568;48.104;11.782;2023-04-26T09:26:36;95413.69;;;14.88;32.11
48156;BME280;35568;48.104;11.782;2023-04-26T09:29:12;95411.92;;;14.35;31.68
48156;BME280;35568;48.104;11.782;2023-04-26T09:31:41;95411.57;;;13.51;33.11
48156;BME280;35568;48.104;11.782;2023-04-26T09:34:10;95414.20;;;13.20;33.80
48156;BME280;35568;48.104;11.782;2023-04-26T09:36:54;95416.96;;;12.92;33.90
48156;BME280;35568;48.104;11.782;2023-04-26T09:39:30;95418.86;;;12.38;35.50
48156;BME280;35568;48.104;11.782;2023-04-26T09:41:58;95421.76;;;12.02;35.74
48156;BME280;35568;48.104;11.782;2023-04-26T09:44:27;95423.19;;;11.85;35.96
48156;BME280;35568;48.104;11.782;2023-04-26T09:46:59;95422.31;;;11.86;36.39
48156;BME280;35568;48.104;11.782;2023-04-26T09:49:26;95421.17;;;12.12;36.22
48156;BME280;35568;48.104;11.782;2023-04-26T09:52:03;95419.73;;;11.65;36.42
48156;BME280;35568;48.104;11.782;2023-04-26T09:54:40;95417.54;;;12.25;36.17
48156;BME280;35568;48.104;11.782;2023-04-26T09:57:07;95420.50;;;12.04;35.99
48156;BME280;35568;48.104;11.782;2023-04-26T09:59:43;95420.84;;;11.92;36.29
48156;BME280;35568;48.104;11.782;2023-04-26T10:02:17;95420.87;;;11.78;35.50
48156;BME280;35568;48.104;11.782;2023-04-26T10:04:45;95422.35;;;11.91;35.70
48156;BME280;35568;48.104;11.782;2023-04-26T10:07:15;95420.61;;;12.30;35.77
48156;BME280;35568;48.104;11.782;2023-04-26T10:09:43;95419.70;;;12.28;35.47
48156;BME280;35568;48.104;11.782;2023-04-26T10:12:11;95421.63;;;12.05;35.04
48156;BME280;35568;48.104;11.782;2023-04-26T10:14:39;95421.13;;;12.22;34.67
48156;BME280;35568;48.104;11.782;2023-04-26T10:17:06;95422.15;;;12.21;34.97
48156;BME280;35568;48.104;11.782;2023-04-26T10:19:35;95419.52;;;12.19;35.28
48156;BME280;35568;48.104;11.782;2023-04-26T10:22:05;95410.53;;;12.47;35.44
48156;BME280;35568;48.104;11.782;2023-04-26T10:24:34;95407.89;;;12.79;34.43
48156;BME280;35568;48.104;11.782;2023-04-26T10:27:02;95407.54;;;13.29;34.92
48156;BME280;35568;48.104;11.782;2023-04-26T10:30:06;95405.43;;;12.32;34.45
48156;BME280;35568;48.104;11.782;2023-04-26T10:33:10;95400.89;;;13.33;35.08
48156;BME280;35568;48.104;11.782;2023-04-26T10:36:00;95402.58;;;13.21;33.85
48156;BME280;35568;48.104;11.782;2023-04-26T10:38:27;95409.14;;;12.39;34.54
48156;BME280;35568;48.104;11.782;2023-04-26T10:40:55;95413.20;;;11.38;35.81
48156;BME280;35568;48.104;11.782;2023-04-26T10:43:52;95413.69;;;11.07;36.97
48156;BME280;35568;48.104;11.782;2023-04-26T10:46:37;95401.02;;;10.58;37.11
48156;BME280;35568;48.104;11.782;2023-04-26T10:49:19;95388.92;;;11.81;37.72
48156;BME280;35568;48.104;11.782;2023-04-26T10:52:19;95387.82;;;12.09;36.77
48156;BME280;35568;48.104;11.782;2023-04-26T10:54:48;95383.42;;;13.10;36.31
48156;BME280;35568;48.104;11.782;2023-04-26T10:57:16;95385.57;;;14.83;33.58
48156;BME280;35568;48.104;11.782;2023-04-26T11:00:19;95376.73;;;15.59;31.08
48156;BME280;35568;48.104;11.782;2023-04-26T11:02:55;95374.76;;;17.10;30.21
48156;BME280;35568;48.104;11.782;2023-04-26T11:05:46;95371.25;;;17.81;28.06
48156;BME280;35568;48.104;11.782;2023-04-26T11:08:15;95363.17;;;18.78;27.43
48156;BME280;35568;48.104;11.782;2023-04-26T11:10:45;95361.23;;;18.27;26.54
48156;BME280;35568;48.104;11.782;2023-04-26T11:13:16;95355.32;;;18.15;26.06
48156;BME280;35568;48.104;11.782;2023-04-26T11:15:43;95353.35;;;18.68;27.24
48156;BME280;35568;48.104;11.782;2023-04-26T11:18:10;95349.38;;;19.14;27.08
48156;BME280;35568;48.104;11.782;2023-04-26T11:20:37;95346.14;;;19.32;26.39
48156;BME280;35568;48.104;11.782;2023-04-26T11:23:06;95344.45;;;18.27;25.84
48156;BME280;35568;48.104;11.782;2023-04-26T11:25:34;95341.41;;;18.79;24.95
48156;BME280;35568;48.104;11.782;2023-04-26T11:28:01;95334.19;;;18.38;25.76
48156;BME280;35568;48.104;11.782;2023-04-26T11:30:29;95334.08;;;17.46;26.98
48156;BME280;35568;48.104;11.782;2023-04-26T11:32:57;95331.93;;;17.74;27.00
48156;BME280;35568;48.104;11.782;2023-04-26T11:35:25;95321.90;;;17.80;24.80
48156;BME280;35568;48.104;11.782;2023-04-26T11:37:52;95322.80;;;17.05;25.26
48156;BME280;35568;48.104;11.782;2023-04-26T11:40:19;95324.09;;;17.30;25.34
48156;BME280;35568;48.104;11.782;2023-04-26T11:42:45;95322.25;;;17.81;25.59
48156;BME280;35568;48.104;11.782;2023-04-26T11:45:15;95320.14;;;19.09;25.05
48156;BME280;35568;48.104;11.782;2023-04-26T11:47:43;95321.45;;;18.39;24.72
48156;BME280;35568;48.104;11.782;2023-04-26T11:50:10;95323.26;;;17.84;25.13
48156;BME280;35568;48.104;11.782;2023-04-26T11:52:38;95323.73;;;17.51;26.38
48156;BME280;35568;48.104;11.782;2023-04-26T11:55:07;95329.84;;;16.81;26.97
48156;BME280;35568;48.104;11.782;2023-04-26T11:57:35;95330.77;;;15.96;28.07
48156;BME280;35568;48.104;11.782;2023-04-26T12:00:11;95336.44;;;15.34;28.28
48156;BME280;35568;48.104;11.782;2023-04-26T12:02:38;95337.31;;;15.20;29.21
48156;BME280;35568;48.104;11.782;2023-04-26T12:05:05;95337.17;;;15.24;29.99
48156;BME280;35568;48.104;11.782;2023-04-26T12:07:34;95337.67;;;15.70;29.60
48156;BME280;35568;48.104;11.782;2023-04-26T12:10:18;95341.38;;;15.10;29.86
48156;BME280;35568;48.104;11.782;2023-04-26T12:12:47;95338.08;;;14.94;30.39
48156;BME280;35568;48.104;11.782;2023-04-26T12:15:15;95335.45;;;14.86;31.38
48156;BME280;35568;48.104;11.782;2023-04-26T12:17:52;95338.01;;;15.18;31.20
48156;BME280;35568;48.104;11.782;2023-04-26T12:20:26;95337.94;;;14.78;31.15
48156;BME280;35568;48.104;11.782;2023-04-26T12:22:58;95342.16;;;14.10;32.10
48156;BME280;35568;48.104;11.782;2023-04-26T12:25:26;95346.01;;;13.95;32.34
48156;BME280;35568;48.104;11.782;2023-04-26T12:27:54;95347.08;;;14.37;32.28
48156;BME280;35568;48.104;11.782;2023-04-26T12:30:21;95342.58;;;14.07;32.49
48156;BME280;35568;48.104;11.782;2023-04-26T12:32:48;95345.26;;;14.12;32.07
48156;BME280;35568;48.104;11.782;2023-04-26T12:35:16;95338.53;;;15.06;31.06
48156;BME280;35568;48.104;11.782;2023-04-26T12:37:43;95339.42;;;15.93;30.22
48156;BME280;35568;48.104;11.782;2023-04-26T12:40:11;95333.28;;;17.17;28.32
48156;BME280;35568;48.104;11.782;2023-04-26T12:42:38;95332.75;;;17.63;27.44
48156;BME280;35568;48.104;11.782;2023-04-26T12:45:06;95337.49;;;17.98;26.44
48156;BME280;35568;48.104;11.782;2023-04-26T12:47:33;95329.50;;;18.33;25.89
48156;BME280;35568;48.104;11.782;2023-04-26T12:50:00;95324.66;;;17.77;25.51
48156;BME280;35568;48.104;11.782;2023-04-26T12:52:27;95329.51;;;17.09;27.01
48156;BME280;35568;48.104;11.782;2023-04-26T12:54:54;95331.62;;;16.23;26.86
48156;BME280;35568;48.104;11.782;2023-04-26T12:57:20;95331.54;;;16.42;27.53
48156;BME280;35568;48.104;11.782;2023-04-26T12:59:47;95328.46;;;15.72;27.44
48156;BME280;35568;48.104;11.782;2023-04-26T13:02:14;95324.99;;;15.50;28.33
48156;BME280;35568;48.104;11.782;2023-04-26T13:04:41;95323.76;;;15.39;28.52
48156;BME280;35568;48.104;11.782;2023-04-26T13:07:08;95320.80;;;14.78;27.89
48156;BME280;35568;48.104;11.782;2023-04-26T13:09:35;95317.52;;;14.58;28.87